ABA weather

Abakan Airport
Abakan, Republic of Khakassia, Russia

Public forecast

Using degrees Celsius for public forecast. Weather courtesy of forecast.io.

METAR (pilot weather report)

Retrieved 2019/04/21 08:30 UTC (50 seconds ago):

UNAA 210830Z 13004MPS 9999 SCT046CB 03/M00 Q1012 R20/190060 NOSIG RMK QFE737

TAF (pilot weather forecast)

Retrieved 2019/04/21 09:21 UTC (0 seconds ago):

TAF UNAA 210758Z 2109/2209 14003G10MPS 9999 FEW005 BKN015CB TEMPO 2109/2115 28008G14MPS 5000 -SHRASN FM212100 36003MPS 3200 BR SCT020CB TEMPO 2121/2203 1700 -SHSN BR FEW003 SCT012CB BECMG 2203/2205 9999 NSW